sensor_id;sensor_type;location;lat;lon;timestamp;P1;durP1;ratioP1;P2;durP2;ratioP2
69765;SDS011;57039;48.014;21.384;2023-11-19T00:00:43;11.18;;;5.65;;
69765;SDS011;57039;48.014;21.384;2023-11-19T00:01:55;9.43;;;5.75;;
69765;SDS011;57039;48.014;21.384;2023-11-19T00:02:59;10.30;;;5.82;;
69765;SDS011;57039;48.014;21.384;2023-11-19T00:04:02;8.88;;;5.22;;
69765;SDS011;57039;48.014;21.384;2023-11-19T00:05:08;9.30;;;5.75;;
69765;SDS011;57039;48.014;21.384;2023-11-19T00:06:14;9.93;;;5.90;;
69765;SDS011;57039;48.014;21.384;2023-11-19T00:07:17;10.30;;;5.50;;
69765;SDS011;57039;48.014;21.384;2023-11-19T00:08:22;9.50;;;5.40;;
69765;SDS011;57039;48.014;21.384;2023-11-19T00:09:27;9.50;;;5.83;;
69765;SDS011;57039;48.014;21.384;2023-11-19T00:10:31;9.07;;;5.18;;
69765;SDS011;57039;48.014;21.384;2023-11-19T00:11:34;8.68;;;5.12;;
69765;SDS011;57039;48.014;21.384;2023-11-19T00:12:38;9.00;;;5.75;;
69765;SDS011;57039;48.014;21.384;2023-11-19T00:13:45;8.75;;;5.07;;
69765;SDS011;57039;48.014;21.384;2023-11-19T00:14:51;9.10;;;5.72;;
69765;SDS011;57039;48.014;21.384;2023-11-19T00:16:04;9.73;;;5.57;;
69765;SDS011;57039;48.014;21.384;2023-11-19T00:17:21;10.07;;;5.25;;
69765;SDS011;57039;48.014;21.384;2023-11-19T00:18:34;10.02;;;5.70;;
69765;SDS011;57039;48.014;21.384;2023-11-19T00:19:45;9.27;;;5.97;;
69765;SDS011;57039;48.014;21.384;2023-11-19T00:21:19;9.20;;;5.27;;
69765;SDS011;57039;48.014;21.384;2023-11-19T00:22:47;9.90;;;6.05;;
69765;SDS011;57039;48.014;21.384;2023-11-19T00:24:04;11.10;;;5.60;;
69765;SDS011;57039;48.014;21.384;2023-11-19T00:25:30;8.02;;;5.07;;
69765;SDS011;57039;48.014;21.384;2023-11-19T00:26:39;9.00;;;5.55;;
69765;SDS011;57039;48.014;21.384;2023-11-19T00:27:50;9.63;;;5.43;;
69765;SDS011;57039;48.014;21.384;2023-11-19T00:29:04;8.85;;;5.25;;
69765;SDS011;57039;48.014;21.384;2023-11-19T00:30:32;9.88;;;5.53;;
69765;SDS011;57039;48.014;21.384;2023-11-19T00:31:36;9.93;;;5.80;;
69765;SDS011;57039;48.014;21.384;2023-11-19T00:32:49;8.95;;;5.30;;
69765;SDS011;57039;48.014;21.384;2023-11-19T00:34:05;9.43;;;5.27;;
69765;SDS011;57039;48.014;21.384;2023-11-19T00:35:17;9.52;;;5.55;;
69765;SDS011;57039;48.014;21.384;2023-11-19T00:36:36;10.75;;;5.37;;
69765;SDS011;57039;48.014;21.384;2023-11-19T00:37:38;10.88;;;5.62;;
69765;SDS011;57039;48.014;21.384;2023-11-19T00:38:42;9.57;;;5.75;;
69765;SDS011;57039;48.014;21.384;2023-11-19T00:39:45;9.70;;;5.57;;
69765;SDS011;57039;48.014;21.384;2023-11-19T00:41:13;9.88;;;5.85;;
69765;SDS011;57039;48.014;21.384;2023-11-19T00:42:27;8.98;;;5.20;;
69765;SDS011;57039;48.014;21.384;2023-11-19T00:43:43;12.23;;;5.62;;
69765;SDS011;57039;48.014;21.384;2023-11-19T00:45:05;8.23;;;5.12;;
69765;SDS011;57039;48.014;21.384;2023-11-19T00:46:19;8.50;;;4.93;;
69765;SDS011;57039;48.014;21.384;2023-11-19T00:47:42;8.73;;;5.10;;
69765;SDS011;57039;48.014;21.384;2023-11-19T00:48:56;9.82;;;5.30;;
69765;SDS011;57039;48.014;21.384;2023-11-19T00:50:11;9.10;;;5.70;;
69765;SDS011;57039;48.014;21.384;2023-11-19T00:51:25;9.13;;;5.12;;
69765;SDS011;57039;48.014;21.384;2023-11-19T00:52:40;9.38;;;5.50;;
69765;SDS011;57039;48.014;21.384;2023-11-19T00:54:00;9.27;;;5.55;;
69765;SDS011;57039;48.014;21.384;2023-11-19T00:55:13;9.68;;;5.50;;
69765;SDS011;57039;48.014;21.384;2023-11-19T00:56:47;8.10;;;4.82;;
69765;SDS011;57039;48.014;21.384;2023-11-19T00:57:51;8.38;;;4.87;;
69765;SDS011;57039;48.014;21.384;2023-11-19T00:59:09;10.30;;;5.57;;
69765;SDS011;57039;48.014;21.384;2023-11-19T01:00:23;10.07;;;5.70;;
69765;SDS011;57039;48.014;21.384;2023-11-19T01:01:46;9.25;;;4.80;;
69765;SDS011;57039;48.014;21.384;2023-11-19T01:03:10;8.27;;;4.55;;
69765;SDS011;57039;48.014;21.384;2023-11-19T01:04:29;8.90;;;5.07;;
69765;SDS011;57039;48.014;21.384;2023-11-19T01:05:47;8.15;;;5.15;;
69765;SDS011;57039;48.014;21.384;2023-11-19T01:06:52;9.75;;;4.55;;
69765;SDS011;57039;48.014;21.384;2023-11-19T01:08:01;8.73;;;4.80;;
69765;SDS011;57039;48.014;21.384;2023-11-19T01:09:19;8.35;;;4.85;;
69765;SDS011;57039;48.014;21.384;2023-11-19T01:10:38;9.10;;;4.90;;
69765;SDS011;57039;48.014;21.384;2023-11-19T01:11:50;9.70;;;5.20;;
69765;SDS011;57039;48.014;21.384;2023-11-19T01:12:56;9.57;;;5.10;;
69765;SDS011;57039;48.014;21.384;2023-11-19T01:13:59;9.23;;;4.95;;
69765;SDS011;57039;48.014;21.384;2023-11-19T01:15:04;10.27;;;5.03;;
69765;SDS011;57039;48.014;21.384;2023-11-19T01:16:14;9.05;;;4.87;;
69765;SDS011;57039;48.014;21.384;2023-11-19T01:17:38;8.90;;;4.60;;
69765;SDS011;57039;48.014;21.384;2023-11-19T01:18:57;8.75;;;4.72;;
69765;SDS011;57039;48.014;21.384;2023-11-19T01:20:22;9.93;;;5.20;;
69765;SDS011;57039;48.014;21.384;2023-11-19T01:21:31;7.97;;;5.00;;
69765;SDS011;57039;48.014;21.384;2023-11-19T01:23:03;9.20;;;4.70;;
69765;SDS011;57039;48.014;21.384;2023-11-19T01:24:12;7.87;;;4.53;;
69765;SDS011;57039;48.014;21.384;2023-11-19T01:25:36;9.57;;;4.62;;
69765;SDS011;57039;48.014;21.384;2023-11-19T01:26:52;8.60;;;4.60;;
69765;SDS011;57039;48.014;21.384;2023-11-19T01:27:57;7.93;;;4.40;;
69765;SDS011;57039;48.014;21.384;2023-11-19T01:29:08;7.45;;;4.57;;
69765;SDS011;57039;48.014;21.384;2023-11-19T01:30:11;8.52;;;4.85;;
69765;SDS011;57039;48.014;21.384;2023-11-19T01:31:18;8.38;;;4.40;;
69765;SDS011;57039;48.014;21.384;2023-11-19T01:32:23;7.75;;;4.80;;
69765;SDS011;57039;48.014;21.384;2023-11-19T01:33:31;8.30;;;4.68;;
69765;SDS011;57039;48.014;21.384;2023-11-19T01:34:47;9.45;;;5.40;;
69765;SDS011;57039;48.014;21.384;2023-11-19T01:36:01;8.87;;;4.83;;
69765;SDS011;57039;48.014;21.384;2023-11-19T01:37:19;8.48;;;4.60;;
69765;SDS011;57039;48.014;21.384;2023-11-19T01:38:46;8.95;;;5.03;;
69765;SDS011;57039;48.014;21.384;2023-11-19T01:40:05;8.48;;;5.15;;
69765;SDS011;57039;48.014;21.384;2023-11-19T01:41:25;8.20;;;4.80;;
69765;SDS011;57039;48.014;21.384;2023-11-19T01:42:38;8.48;;;5.30;;
69765;SDS011;57039;48.014;21.384;2023-11-19T01:43:51;7.60;;;4.50;;
69765;SDS011;57039;48.014;21.384;2023-11-19T01:45:06;9.63;;;5.03;;
69765;SDS011;57039;48.014;21.384;2023-11-19T01:46:20;8.13;;;4.78;;
69765;SDS011;57039;48.014;21.384;2023-11-19T01:47:35;7.93;;;4.68;;
69765;SDS011;57039;48.014;21.384;2023-11-19T01:48:44;9.03;;;5.13;;
69765;SDS011;57039;48.014;21.384;2023-11-19T01:49:55;8.20;;;4.75;;
69765;SDS011;57039;48.014;21.384;2023-11-19T01:51:07;8.18;;;4.70;;
69765;SDS011;57039;48.014;21.384;2023-11-19T01:52:19;8.98;;;4.80;;
69765;SDS011;57039;48.014;21.384;2023-11-19T01:53:30;9.05;;;5.40;;
69765;SDS011;57039;48.014;21.384;2023-11-19T01:54:40;8.00;;;4.85;;
69765;SDS011;57039;48.014;21.384;2023-11-19T01:55:46;7.45;;;4.35;;
69765;SDS011;57039;48.014;21.384;2023-11-19T01:56:53;8.77;;;4.95;;
69765;SDS011;57039;48.014;21.384;2023-11-19T01:57:59;8.60;;;4.82;;
69765;SDS011;57039;48.014;21.384;2023-11-19T01:59:04;9.40;;;5.03;;
69765;SDS011;57039;48.014;21.384;2023-11-19T02:00:07;7.50;;;4.37;;
69765;SDS011;57039;48.014;21.384;2023-11-19T02:01:14;8.00;;;4.62;;
69765;SDS011;57039;48.014;21.384;2023-11-19T02:02:19;8.82;;;4.87;;
69765;SDS011;57039;48.014;21.384;2023-11-19T02:03:25;8.02;;;4.70;;
69765;SDS011;57039;48.014;21.384;2023-11-19T02:04:32;9.20;;;4.97;;
69765;SDS011;57039;48.014;21.384;2023-11-19T02:05:36;8.82;;;5.30;;
69765;SDS011;57039;48.014;21.384;2023-11-19T02:06:40;9.68;;;5.03;;
69765;SDS011;57039;48.014;21.384;2023-11-19T02:07:44;9.05;;;5.28;;
69765;SDS011;57039;48.014;21.384;2023-11-19T02:08:49;8.77;;;4.85;;
69765;SDS011;57039;48.014;21.384;2023-11-19T02:09:52;9.85;;;5.12;;
69765;SDS011;57039;48.014;21.384;2023-11-19T02:10:55;8.60;;;4.70;;
69765;SDS011;57039;48.014;21.384;2023-11-19T02:12:02;9.35;;;5.50;;
69765;SDS011;57039;48.014;21.384;2023-11-19T02:13:05;10.35;;;5.55;;
69765;SDS011;57039;48.014;21.384;2023-11-19T02:14:12;10.88;;;5.47;;
69765;SDS011;57039;48.014;21.384;2023-11-19T02:15:15;9.90;;;4.93;;
69765;SDS011;57039;48.014;21.384;2023-11-19T02:16:21;10.93;;;5.18;;
69765;SDS011;57039;48.014;21.384;2023-11-19T02:17:27;7.75;;;4.70;;
69765;SDS011;57039;48.014;21.384;2023-11-19T02:18:31;9.15;;;5.10;;
69765;SDS011;57039;48.014;21.384;2023-11-19T02:19:35;9.20;;;5.00;;
69765;SDS011;57039;48.014;21.384;2023-11-19T02:20:38;9.07;;;5.32;;
69765;SDS011;57039;48.014;21.384;2023-11-19T02:21:43;9.63;;;4.77;;
69765;SDS011;57039;48.014;21.384;2023-11-19T02:22:47;9.32;;;5.68;;
69765;SDS011;57039;48.014;21.384;2023-11-19T02:23:50;7.57;;;4.50;;
69765;SDS011;57039;48.014;21.384;2023-11-19T02:24:54;9.43;;;6.10;;
69765;SDS011;57039;48.014;21.384;2023-11-19T02:28:49;10.00;;;4.90;;
69765;SDS011;57039;48.014;21.384;2023-11-19T02:29:52;11.10;;;4.70;;
69765;SDS011;57039;48.014;21.384;2023-11-19T02:30:56;9.05;;;5.30;;
69765;SDS011;57039;48.014;21.384;2023-11-19T02:31:59;9.35;;;5.82;;
69765;SDS011;57039;48.014;21.384;2023-11-19T02:33:02;9.70;;;5.13;;
69765;SDS011;57039;48.014;21.384;2023-11-19T02:34:09;9.43;;;5.47;;
69765;SDS011;57039;48.014;21.384;2023-11-19T02:35:15;11.27;;;5.35;;
69765;SDS011;57039;48.014;21.384;2023-11-19T02:36:17;9.55;;;5.35;;
69765;SDS011;57039;48.014;21.384;2023-11-19T02:37:22;9.98;;;5.65;;
69765;SDS011;57039;48.014;21.384;2023-11-19T02:38:26;9.20;;;5.45;;
69765;SDS011;57039;48.014;21.384;2023-11-19T02:39:29;10.02;;;5.55;;
69765;SDS011;57039;48.014;21.384;2023-11-19T02:40:31;9.00;;;5.10;;
69765;SDS011;57039;48.014;21.384;2023-11-19T02:41:34;9.90;;;5.30;;
69765;SDS011;57039;48.014;21.384;2023-11-19T02:42:36;9.70;;;5.10;;
69765;SDS011;57039;48.014;21.384;2023-11-19T02:43:40;9.30;;;4.67;;
69765;SDS011;57039;48.014;21.384;2023-11-19T02:44:43;10.30;;;5.32;;
69765;SDS011;57039;48.014;21.384;2023-11-19T02:45:48;9.25;;;4.80;;
69765;SDS011;57039;48.014;21.384;2023-11-19T02:46:51;10.95;;;5.12;;
69765;SDS011;57039;48.014;21.384;2023-11-19T02:47:54;9.35;;;4.90;;
69765;SDS011;57039;48.014;21.384;2023-11-19T02:48:57;8.45;;;5.05;;
69765;SDS011;57039;48.014;21.384;2023-11-19T02:50:00;9.95;;;4.72;;
69765;SDS011;57039;48.014;21.384;2023-11-19T02:51:04;9.30;;;5.25;;
69765;SDS011;57039;48.014;21.384;2023-11-19T02:52:12;8.65;;;5.05;;
69765;SDS011;57039;48.014;21.384;2023-11-19T02:53:15;8.32;;;4.50;;
69765;SDS011;57039;48.014;21.384;2023-11-19T02:54:19;8.37;;;4.97;;
69765;SDS011;57039;48.014;21.384;2023-11-19T02:55:24;9.70;;;5.28;;
69765;SDS011;57039;48.014;21.384;2023-11-19T02:56:27;8.43;;;5.03;;
69765;SDS011;57039;48.014;21.384;2023-11-19T02:57:31;10.43;;;5.35;;
69765;SDS011;57039;48.014;21.384;2023-11-19T02:58:35;8.60;;;4.90;;
69765;SDS011;57039;48.014;21.384;2023-11-19T02:59:38;9.52;;;4.68;;
69765;SDS011;57039;48.014;21.384;2023-11-19T03:00:44;9.30;;;4.53;;
69765;SDS011;57039;48.014;21.384;2023-11-19T03:01:54;11.45;;;5.45;;
69765;SDS011;57039;48.014;21.384;2023-11-19T03:02:58;9.07;;;4.85;;
69765;SDS011;57039;48.014;21.384;2023-11-19T03:04:23;8.80;;;4.82;;
69765;SDS011;57039;48.014;21.384;2023-11-19T03:05:26;9.53;;;5.27;;
69765;SDS011;57039;48.014;21.384;2023-11-19T03:06:32;10.77;;;5.62;;
69765;SDS011;57039;48.014;21.384;2023-11-19T03:07:36;9.18;;;5.20;;
69765;SDS011;57039;48.014;21.384;2023-11-19T03:08:38;8.20;;;4.68;;
69765;SDS011;57039;48.014;21.384;2023-11-19T03:09:41;7.65;;;4.47;;
69765;SDS011;57039;48.014;21.384;2023-11-19T03:10:46;8.70;;;5.10;;
69765;SDS011;57039;48.014;21.384;2023-11-19T03:11:49;8.85;;;4.70;;
69765;SDS011;57039;48.014;21.384;2023-11-19T03:12:52;8.80;;;4.87;;
69765;SDS011;57039;48.014;21.384;2023-11-19T03:13:57;9.15;;;5.28;;
69765;SDS011;57039;48.014;21.384;2023-11-19T03:15:00;8.60;;;5.15;;
69765;SDS011;57039;48.014;21.384;2023-11-19T03:16:03;8.53;;;4.63;;
69765;SDS011;57039;48.014;21.384;2023-11-19T03:17:06;8.63;;;5.10;;
69765;SDS011;57039;48.014;21.384;2023-11-19T03:18:09;9.65;;;4.97;;
69765;SDS011;57039;48.014;21.384;2023-11-19T03:19:12;7.93;;;5.07;;
69765;SDS011;57039;48.014;21.384;2023-11-19T03:20:27;9.27;;;5.22;;
69765;SDS011;57039;48.014;21.384;2023-11-19T03:21:33;9.52;;;5.15;;
69765;SDS011;57039;48.014;21.384;2023-11-19T03:22:36;8.43;;;4.87;;
69765;SDS011;57039;48.014;21.384;2023-11-19T03:23:40;8.30;;;4.90;;
69765;SDS011;57039;48.014;21.384;2023-11-19T03:24:44;10.00;;;5.40;;
69765;SDS011;57039;48.014;21.384;2023-11-19T03:25:46;9.20;;;5.30;;
69765;SDS011;57039;48.014;21.384;2023-11-19T03:26:49;9.70;;;5.70;;
69765;SDS011;57039;48.014;21.384;2023-11-19T03:27:55;9.88;;;5.65;;
69765;SDS011;57039;48.014;21.384;2023-11-19T03:28:58;9.15;;;5.53;;
69765;SDS011;57039;48.014;21.384;2023-11-19T03:30:01;10.60;;;6.03;;
69765;SDS011;57039;48.014;21.384;2023-11-19T03:31:05;11.73;;;6.25;;
69765;SDS011;57039;48.014;21.384;2023-11-19T03:32:11;11.12;;;6.40;;
69765;SDS011;57039;48.014;21.384;2023-11-19T03:33:14;10.45;;;6.07;;
69765;SDS011;57039;48.014;21.384;2023-11-19T03:34:17;12.68;;;6.32;;
69765;SDS011;57039;48.014;21.384;2023-11-19T03:35:21;13.25;;;7.15;;
69765;SDS011;57039;48.014;21.384;2023-11-19T03:36:25;13.02;;;6.80;;
69765;SDS011;57039;48.014;21.384;2023-11-19T03:37:28;14.00;;;7.70;;
69765;SDS011;57039;48.014;21.384;2023-11-19T03:38:31;13.65;;;8.15;;
69765;SDS011;57039;48.014;21.384;2023-11-19T03:39:33;13.05;;;7.87;;
69765;SDS011;57039;48.014;21.384;2023-11-19T03:40:36;14.27;;;7.78;;
69765;SDS011;57039;48.014;21.384;2023-11-19T03:41:40;15.25;;;8.32;;
69765;SDS011;57039;48.014;21.384;2023-11-19T03:42:47;12.50;;;7.57;;
69765;SDS011;57039;48.014;21.384;2023-11-19T03:43:50;14.57;;;7.68;;
69765;SDS011;57039;48.014;21.384;2023-11-19T03:44:53;14.10;;;8.25;;
69765;SDS011;57039;48.014;21.384;2023-11-19T03:45:56;16.50;;;8.05;;
69765;SDS011;57039;48.014;21.384;2023-11-19T03:46:59;13.27;;;8.10;;
69765;SDS011;57039;48.014;21.384;2023-11-19T03:48:02;12.40;;;6.67;;
69765;SDS011;57039;48.014;21.384;2023-11-19T03:49:06;11.95;;;6.53;;
69765;SDS011;57039;48.014;21.384;2023-11-19T03:50:10;12.43;;;6.80;;
69765;SDS011;57039;48.014;21.384;2023-11-19T03:51:12;12.50;;;6.90;;
69765;SDS011;57039;48.014;21.384;2023-11-19T03:52:17;13.93;;;7.35;;
69765;SDS011;57039;48.014;21.384;2023-11-19T03:53:23;13.75;;;7.03;;
69765;SDS011;57039;48.014;21.384;2023-11-19T03:54:27;12.73;;;6.72;;
69765;SDS011;57039;48.014;21.384;2023-11-19T03:55:30;13.00;;;7.57;;
69765;SDS011;57039;48.014;21.384;2023-11-19T03:56:33;14.43;;;7.82;;
69765;SDS011;57039;48.014;21.384;2023-11-19T03:57:36;11.95;;;6.95;;
69765;SDS011;57039;48.014;21.384;2023-11-19T03:58:39;13.93;;;7.10;;
69765;SDS011;57039;48.014;21.384;2023-11-19T03:59:42;12.85;;;6.65;;
69765;SDS011;57039;48.014;21.384;2023-11-19T04:00:45;12.52;;;6.55;;
69765;SDS011;57039;48.014;21.384;2023-11-19T04:01:48;16.10;;;7.37;;
69765;SDS011;57039;48.014;21.384;2023-11-19T04:02:51;12.07;;;7.35;;
69765;SDS011;57039;48.014;21.384;2023-11-19T04:03:55;12.45;;;6.82;;
69765;SDS011;57039;48.014;21.384;2023-11-19T04:04:58;11.50;;;7.00;;
69765;SDS011;57039;48.014;21.384;2023-11-19T04:06:01;12.30;;;7.45;;
69765;SDS011;57039;48.014;21.384;2023-11-19T04:07:04;12.00;;;6.40;;
69765;SDS011;57039;48.014;21.384;2023-11-19T04:08:07;13.30;;;7.45;;
69765;SDS011;57039;48.014;21.384;2023-11-19T04:09:10;14.50;;;7.50;;
69765;SDS011;57039;48.014;21.384;2023-11-19T04:10:13;11.68;;;6.70;;
69765;SDS011;57039;48.014;21.384;2023-11-19T04:11:18;12.65;;;6.80;;
69765;SDS011;57039;48.014;21.384;2023-11-19T04:12:21;13.35;;;6.85;;
69765;SDS011;57039;48.014;21.384;2023-11-19T04:13:25;11.80;;;7.25;;
69765;SDS011;57039;48.014;21.384;2023-11-19T04:14:28;13.02;;;6.70;;
69765;SDS011;57039;48.014;21.384;2023-11-19T04:15:30;13.43;;;7.07;;
69765;SDS011;57039;48.014;21.384;2023-11-19T04:16:33;13.68;;;7.12;;
69765;SDS011;57039;48.014;21.384;2023-11-19T04:17:36;11.48;;;6.90;;
69765;SDS011;57039;48.014;21.384;2023-11-19T04:18:39;13.77;;;7.15;;
69765;SDS011;57039;48.014;21.384;2023-11-19T04:19:42;12.43;;;6.37;;
69765;SDS011;57039;48.014;21.384;2023-11-19T04:20:46;13.82;;;7.87;;
69765;SDS011;57039;48.014;21.384;2023-11-19T04:21:48;12.85;;;6.87;;
69765;SDS011;57039;48.014;21.384;2023-11-19T04:22:52;14.07;;;7.15;;
69765;SDS011;57039;48.014;21.384;2023-11-19T04:23:56;12.15;;;6.60;;
69765;SDS011;57039;48.014;21.384;2023-11-19T04:24:59;12.75;;;6.30;;
69765;SDS011;57039;48.014;21.384;2023-11-19T04:26:02;13.07;;;7.03;;
69765;SDS011;57039;48.014;21.384;2023-11-19T04:27:09;13.52;;;7.10;;
69765;SDS011;57039;48.014;21.384;2023-11-19T04:28:13;13.00;;;7.05;;
69765;SDS011;57039;48.014;21.384;2023-11-19T04:29:16;13.27;;;7.25;;
69765;SDS011;57039;48.014;21.384;2023-11-19T04:30:20;12.50;;;6.60;;
69765;SDS011;57039;48.014;21.384;2023-11-19T04:31:23;12.82;;;7.30;;
69765;SDS011;57039;48.014;21.384;2023-11-19T04:32:28;11.25;;;6.62;;
69765;SDS011;57039;48.014;21.384;2023-11-19T04:33:31;12.00;;;7.22;;
69765;SDS011;57039;48.014;21.384;2023-11-19T04:34:34;12.15;;;7.85;;
69765;SDS011;57039;48.014;21.384;2023-11-19T04:35:37;12.02;;;7.03;;
69765;SDS011;57039;48.014;21.384;2023-11-19T04:36:40;13.07;;;7.22;;
69765;SDS011;57039;48.014;21.384;2023-11-19T04:37:43;11.90;;;6.70;;
69765;SDS011;57039;48.014;21.384;2023-11-19T04:38:46;12.43;;;7.30;;
69765;SDS011;57039;48.014;21.384;2023-11-19T04:39:49;13.18;;;7.60;;
69765;SDS011;57039;48.014;21.384;2023-11-19T04:40:52;14.03;;;6.83;;
69765;SDS011;57039;48.014;21.384;2023-11-19T04:41:55;13.00;;;7.70;;
69765;SDS011;57039;48.014;21.384;2023-11-19T04:42:58;11.73;;;6.78;;
69765;SDS011;57039;48.014;21.384;2023-11-19T04:44:01;13.15;;;7.43;;
69765;SDS011;57039;48.014;21.384;2023-11-19T04:45:04;12.75;;;8.15;;
69765;SDS011;57039;48.014;21.384;2023-11-19T04:46:09;14.13;;;8.10;;
69765;SDS011;57039;48.014;21.384;2023-11-19T04:47:12;16.45;;;8.90;;
69765;SDS011;57039;48.014;21.384;2023-11-19T04:48:16;15.65;;;9.57;;
69765;SDS011;57039;48.014;21.384;2023-11-19T04:49:19;14.18;;;8.35;;
69765;SDS011;57039;48.014;21.384;2023-11-19T04:50:23;15.73;;;8.27;;
69765;SDS011;57039;48.014;21.384;2023-11-19T04:51:26;12.90;;;7.57;;
69765;SDS011;57039;48.014;21.384;2023-11-19T04:52:28;14.45;;;8.23;;
69765;SDS011;57039;48.014;21.384;2023-11-19T04:53:31;16.25;;;9.52;;
69765;SDS011;57039;48.014;21.384;2023-11-19T04:54:34;19.17;;;10.27;;
69765;SDS011;57039;48.014;21.384;2023-11-19T04:55:37;17.02;;;10.77;;
69765;SDS011;57039;48.014;21.384;2023-11-19T04:56:40;18.20;;;10.95;;
69765;SDS011;57039;48.014;21.384;2023-11-19T04:57:43;18.60;;;10.98;;
69765;SDS011;57039;48.014;21.384;2023-11-19T04:58:46;20.45;;;12.37;;
69765;SDS011;57039;48.014;21.384;2023-11-19T04:59:49;22.83;;;12.93;;
69765;SDS011;57039;48.014;21.384;2023-11-19T05:00:52;25.95;;;14.07;;
69765;SDS011;57039;48.014;21.384;2023-11-19T05:01:55;29.17;;;15.20;;
69765;SDS011;57039;48.014;21.384;2023-11-19T05:02:58;24.77;;;14.52;;
69765;SDS011;57039;48.014;21.384;2023-11-19T05:04:01;25.60;;;13.62;;
69765;SDS011;57039;48.014;21.384;2023-11-19T05:05:05;26.92;;;14.05;;
69765;SDS011;57039;48.014;21.384;2023-11-19T05:06:08;24.55;;;13.65;;
69765;SDS011;57039;48.014;21.384;2023-11-19T05:07:10;25.48;;;15.75;;
69765;SDS011;57039;48.014;21.384;2023-11-19T05:08:13;28.33;;;15.95;;
69765;SDS011;57039;48.014;21.384;2023-11-19T05:09:16;27.87;;;16.83;;
69765;SDS011;57039;48.014;21.384;2023-11-19T05:10:19;28.30;;;17.17;;
69765;SDS011;57039;48.014;21.384;2023-11-19T05:11:22;30.77;;;17.48;;
69765;SDS011;57039;48.014;21.384;2023-11-19T05:12:25;28.77;;;16.43;;
69765;SDS011;57039;48.014;21.384;2023-11-19T05:13:28;26.52;;;15.82;;
69765;SDS011;57039;48.014;21.384;2023-11-19T05:14:30;24.25;;;14.10;;
69765;SDS011;57039;48.014;21.384;2023-11-19T05:15:33;25.27;;;14.70;;
69765;SDS011;57039;48.014;21.384;2023-11-19T05:16:37;22.73;;;13.32;;
69765;SDS011;57039;48.014;21.384;2023-11-19T05:17:42;23.02;;;12.63;;
69765;SDS011;57039;48.014;21.384;2023-11-19T05:18:45;21.23;;;12.48;;
69765;SDS011;57039;48.014;21.384;2023-11-19T05:19:48;18.85;;;11.68;;
69765;SDS011;57039;48.014;21.384;2023-11-19T05:20:51;20.17;;;11.55;;
69765;SDS011;57039;48.014;21.384;2023-11-19T05:21:54;18.12;;;10.20;;
69765;SDS011;57039;48.014;21.384;2023-11-19T05:22:57;15.80;;;8.90;;
69765;SDS011;57039;48.014;21.384;2023-11-19T05:24:02;15.43;;;8.65;;
69765;SDS011;57039;48.014;21.384;2023-11-19T05:25:08;14.55;;;8.00;;
69765;SDS011;57039;48.014;21.384;2023-11-19T05:26:19;15.00;;;8.65;;
69765;SDS011;57039;48.014;21.384;2023-11-19T05:27:23;12.95;;;7.32;;
69765;SDS011;57039;48.014;21.384;2023-11-19T05:28:27;13.25;;;7.50;;
69765;SDS011;57039;48.014;21.384;2023-11-19T05:29:30;12.20;;;6.87;;
69765;SDS011;57039;48.014;21.384;2023-11-19T05:30:32;12.90;;;7.18;;
69765;SDS011;57039;48.014;21.384;2023-11-19T05:31:35;10.93;;;6.57;;
69765;SDS011;57039;48.014;21.384;2023-11-19T05:32:40;10.80;;;5.93;;
69765;SDS011;57039;48.014;21.384;2023-11-19T05:33:43;11.07;;;6.60;;
69765;SDS011;57039;48.014;21.384;2023-11-19T05:34:46;9.88;;;5.95;;
69765;SDS011;57039;48.014;21.384;2023-11-19T05:35:52;11.40;;;6.55;;
69765;SDS011;57039;48.014;21.384;2023-11-19T05:36:55;12.50;;;7.50;;
69765;SDS011;57039;48.014;21.384;2023-11-19T05:38:00;11.95;;;7.22;;
69765;SDS011;57039;48.014;21.384;2023-11-19T05:39:03;12.37;;;6.90;;
69765;SDS011;57039;48.014;21.384;2023-11-19T05:40:07;12.43;;;7.45;;
69765;SDS011;57039;48.014;21.384;2023-11-19T05:41:17;11.23;;;6.80;;
69765;SDS011;57039;48.014;21.384;2023-11-19T05:42:20;12.40;;;7.65;;
69765;SDS011;57039;48.014;21.384;2023-11-19T05:43:23;11.57;;;7.50;;
69765;SDS011;57039;48.014;21.384;2023-11-19T05:44:26;11.60;;;6.77;;
69765;SDS011;57039;48.014;21.384;2023-11-19T05:45:29;12.27;;;7.53;;
69765;SDS011;57039;48.014;21.384;2023-11-19T05:46:32;12.10;;;7.05;;
69765;SDS011;57039;48.014;21.384;2023-11-19T05:47:35;11.90;;;7.57;;
69765;SDS011;57039;48.014;21.384;2023-11-19T05:48:38;11.88;;;7.43;;
69765;SDS011;57039;48.014;21.384;2023-11-19T05:49:43;11.40;;;6.90;;
69765;SDS011;57039;48.014;21.384;2023-11-19T05:50:46;11.38;;;6.43;;
69765;SDS011;57039;48.014;21.384;2023-11-19T05:51:49;11.38;;;6.72;;
69765;SDS011;57039;48.014;21.384;2023-11-19T05:52:54;10.55;;;6.20;;
69765;SDS011;57039;48.014;21.384;2023-11-19T05:53:56;10.77;;;5.75;;
69765;SDS011;57039;48.014;21.384;2023-11-19T05:55:00;11.73;;;6.03;;
69765;SDS011;57039;48.014;21.384;2023-11-19T05:56:06;13.27;;;7.75;;
69765;SDS011;57039;48.014;21.384;2023-11-19T05:57:12;18.02;;;9.95;;
69765;SDS011;57039;48.014;21.384;2023-11-19T05:58:16;20.70;;;11.43;;
69765;SDS011;57039;48.014;21.384;2023-11-19T05:59:19;21.77;;;11.80;;
69765;SDS011;57039;48.014;21.384;2023-11-19T06:00:22;21.23;;;11.43;;
69765;SDS011;57039;48.014;21.384;2023-11-19T06:01:26;21.25;;;11.75;;
69765;SDS011;57039;48.014;21.384;2023-11-19T06:02:29;21.20;;;11.00;;
69765;SDS011;57039;48.014;21.384;2023-11-19T06:03:33;21.98;;;11.57;;
69765;SDS011;57039;48.014;21.384;2023-11-19T06:04:36;18.85;;;11.50;;
69765;SDS011;57039;48.014;21.384;2023-11-19T06:05:39;18.87;;;11.00;;
69765;SDS011;57039;48.014;21.384;2023-11-19T06:06:42;20.80;;;12.18;;
69765;SDS011;57039;48.014;21.384;2023-11-19T06:07:45;20.33;;;11.60;;
69765;SDS011;57039;48.014;21.384;2023-11-19T06:08:48;21.42;;;12.68;;
69765;SDS011;57039;48.014;21.384;2023-11-19T06:09:53;21.70;;;12.23;;
69765;SDS011;57039;48.014;21.384;2023-11-19T06:10:59;22.80;;;11.45;;
69765;SDS011;57039;48.014;21.384;2023-11-19T06:12:04;22.60;;;11.73;;
69765;SDS011;57039;48.014;21.384;2023-11-19T06:13:08;22.40;;;11.60;;
69765;SDS011;57039;48.014;21.384;2023-11-19T06:14:13;19.98;;;10.40;;
69765;SDS011;57039;48.014;21.384;2023-11-19T06:15:16;20.90;;;11.12;;
69765;SDS011;57039;48.014;21.384;2023-11-19T06:16:19;20.20;;;10.10;;
69765;SDS011;57039;48.014;21.384;2023-11-19T06:17:22;23.10;;;11.10;;
69765;SDS011;57039;48.014;21.384;2023-11-19T06:18:25;19.98;;;9.98;;
69765;SDS011;57039;48.014;21.384;2023-11-19T06:19:28;20.67;;;10.95;;
69765;SDS011;57039;48.014;21.384;2023-11-19T06:20:32;20.80;;;10.88;;
69765;SDS011;57039;48.014;21.384;2023-11-19T06:21:38;19.17;;;10.18;;
69765;SDS011;57039;48.014;21.384;2023-11-19T06:22:41;21.12;;;11.15;;
69765;SDS011;57039;48.014;21.384;2023-11-19T06:23:46;23.67;;;12.32;;
69765;SDS011;57039;48.014;21.384;2023-11-19T06:24:49;21.45;;;12.00;;
69765;SDS011;57039;48.014;21.384;2023-11-19T06:25:52;24.98;;;12.55;;
69765;SDS011;57039;48.014;21.384;2023-11-19T06:26:54;22.43;;;12.00;;
69765;SDS011;57039;48.014;21.384;2023-11-19T06:27:59;21.30;;;12.05;;
69765;SDS011;57039;48.014;21.384;2023-11-19T06:29:01;22.27;;;11.52;;
69765;SDS011;57039;48.014;21.384;2023-11-19T06:30:04;23.58;;;12.18;;
69765;SDS011;57039;48.014;21.384;2023-11-19T06:31:08;21.83;;;12.65;;
69765;SDS011;57039;48.014;21.384;2023-11-19T06:32:11;20.58;;;11.23;;
69765;SDS011;57039;48.014;21.384;2023-11-19T06:33:18;22.50;;;11.75;;